LIMELIRU

Guest
Details From LIME - Bergamo Orio Al Serio
To LIRU - Urbe
Flight Number -
Tags generated
Created
Modified
Stats Distance 254 nm / 471 km
Max Altitude 29,200 ft / 8,900 m
Waypoints 7
Social Downloads 0
Likes 0
Share VATSIM

Download

Looking for another format? Having issues loading an existing format? Contact us
Advertisement - Login to hide

Notes

Basic altitude profile: - Ascent Rate: 2500ft/min - Ascent Speed: 250kts - Cruise Altitude: 35000ft - Cruise Speed: 420kts - Descent Rate: 1500ft/min - Descent Speed: 250kts Options: - Use NATs: yes - Use PACOTS: yes - Use low airways: yes - Use high airways: yes

Route

LIME LUPOS UL995 AMTEL L995 BOL LIRU

ID Type Via Altitude Latitude Longitude Leg Dist Tot Dist Heading (true) Name
O LIME APT - 0 ft / 0 m 45.67200˚ 9.70689˚ - 0 nm - Bergamo Orio Al Serio
LUPOS FIX - 27,300 ft / 8,321 m 44.50472˚ 10.58139˚ 79 nm 79 nm 152° / 152° -
FRZ VOR UL995 (AWY-HI) 29,200 ft / 8,900 m 44.02718˚ 11.00331˚ 33 nm 113 nm 148° / 148° FIRENZE VORTAC
KUGIX FIX UL995 (AWY-HI) 23,200 ft / 7,071 m 43.55222˚ 11.36222˚ 32 nm 145 nm 151° / 152° -
AMTEL FIX UL995 (AWY-HI) 19,500 ft / 5,944 m 43.22028˚ 11.60861˚ 22 nm 168 nm 152° / 152° -
BOL VOR L995 (AWY-LO) 9,500 ft / 2,896 m 42.61833˚ 12.04861˚ 41 nm 209 nm 152° / 152° BOLSENA VORTAC
O LIRU APT - 0 ft / 0 m 41.95238˚ 12.50225˚ 44 nm 254 nm 153° / 153° Urbe

Altitude Profile

Advertisement - Login to hide

Weather


0- 5 10 15 20 25 30 35+ Temperature / ° C

Clouds and Precipitation
Forecast for 2017-12-12 12:00 UTC. Updated an hour ago

Ground ~20,000 ft ~40,000 ft Winds

LIME

Details ICAO LIME (BGY)
Name Bergamo Orio Al Serio
Region Italy
Timezone Europe/Rome (UTC+1.0)
Stats Elevation 779 ft / 237 m (AMSL)
Location 45.672004° 9.706892°
Runways 2
Magnetic Variation 2.602° E

METAR

LIME 121150Z 19005KT 180V240 7000 SCT080 07/05 Q1008 NOSIG

Decode

TAF

TAF LIME 121100Z 1212/1312 VRB05KT 9999 SCT080 TEMPO 1302/1307 2500 BCFG

Decode

Departure Runways

ID Width Length Bearing (true) Bearing (mag) Surface Threshold Offset Overrun Length
10 148 ft / 45 m 9,897 ft / 3,017 m 104.89° 102.29° Asphalt 312 ft / 95 m 0 ft / 0 m
12 59 ft / 18 m 2,665 ft / 812 m 121.47° 118.87° Asphalt 197 ft / 60 m 0 ft / 0 m
28 148 ft / 45 m 9,897 ft / 3,017 m 284.91° 282.31° Asphalt 712 ft / 217 m 0 ft / 0 m
30 59 ft / 18 m 2,665 ft / 812 m 301.48° 298.88° Asphalt 312 ft / 95 m 0 ft / 0 m

LIRU

Details ICAO LIRU
Name Urbe
Region Italy
Timezone Europe/Rome (UTC+1.0)
Stats Elevation 55 ft / 17 m (AMSL)
Location 41.952376° 12.502250°
Runways 1
Magnetic Variation 3.048° E

METAR

LIRU 121150Z 17007KT 7000 SCT020 BKN035 17/13 Q1013

Decode

TAF

Not found

Destination Runways

ID Width Length Bearing (true) Bearing (mag) Surface Threshold Offset Overrun Length
16 98 ft / 30 m 3,560 ft / 1,085 m 160.00° 156.95° Asphalt 361 ft / 110 m 0 ft / 0 m
34 98 ft / 30 m 3,560 ft / 1,085 m 340.00° 336.95° Asphalt 384 ft / 117 m 0 ft / 0 m